^^
Paulen-Weather Station Historical Data
Daily Summary for August 09, 2022 Units:  English    Metric   Both
Daily Weekly Monthly Yearly Custom
  High: Low: Average:
Temperature: 62.6 °F 57.2 °F 59.7 °F
Dew Point: 59 °F 55.4 °F 56.8 °F
Humidity: 94% 86% 91%
Wind Speed: 8.7mph 0.6mph 4.5mph
Wind Gust: 7.5mph - -
Wind- - SSE
Pressure: 30.3 in 30.3 in -
Precipitation: 0 in    
Historical Graphs
 
 
Tabular Data for August 09, 2022
Time Temperature Dew Point Pressure Wind Wind Speed Wind Gust Humidity Rainfall Rate (Hourly) solar
00:04 62.6 °F 59 °F 30.3 in NNE 3.7 mph 4.3 mph 88% 0 in 0 W/m2
00:09 62.6 °F 59 °F 30.3 in NE 4.3 mph 4.3 mph 89% 0 in 0 W/m2
00:14 62.6 °F 59 °F 30.3 in NNE 3.7 mph 3.7 mph 89% 0 in 0 W/m2
00:19 60.8 °F 59 °F 30.3 in NNE 3.7 mph 3.7 mph 90% 0 in 0 W/m2
00:24 60.8 °F 59 °F 30.3 in NNE 4.3 mph 3.7 mph 91% 0 in 0 W/m2
00:29 60.8 °F 59 °F 30.3 in NNE 3.7 mph 3.1 mph 91% 0 in 0 W/m2
00:34 60.8 °F 59 °F 30.3 in NNE 3.7 mph 3.1 mph 92% 0 in 0 W/m2
00:39 60.8 °F 59 °F 30.3 in N 3.7 mph 3.7 mph 92% 0 in 0 W/m2
00:44 60.8 °F 59 °F 30.3 in N 4.3 mph 3.7 mph 92% 0 in 0 W/m2
00:49 60.8 °F 59 °F 30.3 in N 3.7 mph 3.7 mph 92% 0 in 0 W/m2
00:54 60.8 °F 59 °F 30.3 in N 3.1 mph 2.5 mph 92% 0 in 0 W/m2
00:59 60.8 °F 59 °F 30.3 in NNE 4.3 mph 4.3 mph 92% 0 in 0 W/m2
01:04 60.8 °F 59 °F 30.3 in NNE 5 mph 4.3 mph 92% 0 in 0 W/m2
01:09 60.8 °F 59 °F 30.3 in N 3.7 mph 4.3 mph 92% 0 in 0 W/m2
01:14 60.8 °F 57.2 °F 30.3 in N 2.5 mph 2.5 mph 91% 0 in 0 W/m2
01:19 60.8 °F 57.2 °F 30.3 in NNE 3.7 mph 3.7 mph 91% 0 in 0 W/m2
01:24 60.8 °F 57.2 °F 30.3 in NNE 3.1 mph 3.1 mph 90% 0 in 0 W/m2
01:29 60.8 °F 57.2 °F 30.3 in NE 2.5 mph 1.9 mph 90% 0 in 0 W/m2
01:34 60.8 °F 57.2 °F 30.3 in NE 3.1 mph 2.5 mph 90% 0 in 0 W/m2
01:39 60.8 °F 57.2 °F 30.3 in ENE 0.6 mph 1.2 mph 90% 0 in 0 W/m2
01:44 60.8 °F 57.2 °F 30.3 in ENE 3.7 mph 3.1 mph 89% 0 in 0 W/m2
01:49 60.8 °F 57.2 °F 30.3 in ENE 5 mph 4.3 mph 89% 0 in 0 W/m2
01:54 60.8 °F 57.2 °F 30.3 in NE 4.3 mph 4.3 mph 88% 0 in 0 W/m2
01:59 60.8 °F 57.2 °F 30.3 in NE 3.7 mph 3.7 mph 87% 0 in 0 W/m2
02:04 60.8 °F 55.4 °F 30.3 in NE 4.3 mph 4.3 mph 86% 0 in 0 W/m2
02:09 60.8 °F 55.4 °F 30.3 in ENE 4.3 mph 4.3 mph 86% 0 in 0 W/m2
02:14 60.8 °F 55.4 °F 30.3 in ENE 4.3 mph 4.3 mph 86% 0 in 0 W/m2
02:19 60.8 °F 55.4 °F 30.3 in NE 5 mph 4.3 mph 87% 0 in 0 W/m2
02:24 60.8 °F 55.4 °F 30.3 in NE 4.3 mph 5.6 mph 87% 0 in 0 W/m2
02:29 60.8 °F 55.4 °F 30.3 in NE 5.6 mph 6.2 mph 87% 0 in 0 W/m2
02:34 60.8 °F 55.4 °F 30.3 in N 3.7 mph 3.1 mph 87% 0 in 0 W/m2
02:39 59 °F 57.2 °F 30.3 in N 5 mph 5 mph 88% 0 in 0 W/m2
02:44 59 °F 57.2 °F 30.3 in N 5 mph 4.3 mph 89% 0 in 0 W/m2
02:49 59 °F 57.2 °F 30.3 in N 5 mph 4.3 mph 90% 0 in 0 W/m2
02:54 59 °F 57.2 °F 30.3 in N 5 mph 5.6 mph 90% 0 in 0 W/m2
02:59 59 °F 57.2 °F 30.3 in N 8.1 mph 7.5 mph 91% 0 in 0 W/m2
03:04 59 °F 57.2 °F 30.3 in N 8.7 mph 7.5 mph 92% 0 in 0 W/m2
03:09 59 °F 55.4 °F 30.3 in N 8.1 mph 6.8 mph 92% 0 in 0 W/m2
03:14 59 °F 55.4 °F 30.3 in N 7.5 mph 6.2 mph 93% 0 in 0 W/m2
03:19 59 °F 55.4 °F 30.3 in N 5 mph 4.3 mph 93% 0 in 0 W/m2
03:24 59 °F 55.4 °F 30.3 in N 5.6 mph 5.6 mph 93% 0 in 0 W/m2
03:29 57.2 °F 55.4 °F 30.3 in N 6.2 mph 5.6 mph 93% 0 in 0 W/m2
03:34 57.2 °F 55.4 °F 30.3 in N 5 mph 4.3 mph 93% 0 in 0 W/m2
03:39 57.2 °F 55.4 °F 30.3 in N 5.6 mph 5 mph 94% 0 in 0 W/m2
03:44 57.2 °F 55.4 °F 30.3 in NNW 5 mph 4.3 mph 94% 0 in 0 W/m2
03:49 57.2 °F 55.4 °F 30.3 in NNW 3.7 mph 3.1 mph 94% 0 in 0 W/m2
03:54 57.2 °F 55.4 °F 30.3 in NNW 3.7 mph 3.1 mph 94% 0 in 0 W/m2
03:59 57.2 °F 55.4 °F 30.3 in NNW 4.3 mph 3.7 mph 94% 0 in 0 W/m2
04:04 57.2 °F 55.4 °F 30.3 in NW 3.7 mph 3.7 mph 94% 0 in 0 W/m2
04:09 57.2 °F 55.4 °F 30.3 in NW 3.7 mph 4.3 mph 93% 0 in 0 W/m2
04:14 57.2 °F 55.4 °F 30.3 in NW 5 mph 4.3 mph 94% 0 in 0 W/m2
04:19 57.2 °F 55.4 °F 30.3 in NW 5 mph 5 mph 94% 0 in 0 W/m2
04:24 57.2 °F 55.4 °F 30.3 in NW 5 mph 4.3 mph 94% 0 in 0 W/m2
04:29 57.2 °F 55.4 °F 30.3 in NW 4.3 mph 4.3 mph 94% 0 in 0 W/m2
Compliments of Weather Underground - 2 mb